Accueil
METAR-TAF:

METAR-TAF

Aéroports :

Culpeper Regional Airport (T.I. Martin Field)

Culpeper, Virginie, États-Unis

latitude: 38-31-36N, longitude: 077-51-32W, altitude: 95 m

Observation

Le bulletin a été fait il y a 19 minutes, à 17:55 UTC
Vent 3 kt de ouest
Température 31°C
Humidité 52%
Pression 1011 hPa
Visibilité: 16.1 km
Nuages fragmentés à une hauteur de 4400 ft

METAR: KCJR 101755Z AUTO 27003KT 10SM BKN044 31/20 A2984 RMK AO2 T03100200 10319 20245

Heure: 14:14 (18:14 UTC)


TAF: absent

Observations et prévisions météorologiques de plus de 4000 aéroports (messages METAR et TAF).

Les stations disponibles sont représentées par des disques jaunes et rouges sur la carte.

Passer la souris dessus pour voir le nom de la station.

Cliquer dessus pour voir les observations et prévisions météorologiques.

Pour changer de carte: cliquez sur les boutons verts avec une croix noire pour zoomer, sur le bouton vert avec un tiret pour effectuer un zoom arrière, ou sur les flèches vertes pour les cartes adjacentes.


METAR-TAF: